createdAt,value
2022-08-04T00:01:35.972Z,2.42
2022-08-04T00:04:22.031Z,2.70
2022-08-04T00:07:07.871Z,2.58
2022-08-04T00:09:37.084Z,2.40
2022-08-04T00:12:06.834Z,2.40
2022-08-04T00:14:35.379Z,2.53
2022-08-04T00:17:04.187Z,2.25
2022-08-04T00:19:32.779Z,2.80
2022-08-04T00:22:08.282Z,2.50
2022-08-04T00:24:35.396Z,2.47
2022-08-04T00:27:01.944Z,2.60
2022-08-04T00:29:28.564Z,2.60
2022-08-04T00:31:58.130Z,2.55
2022-08-04T00:34:25.397Z,2.42
2022-08-04T00:36:53.311Z,2.78
2022-08-04T00:39:20.623Z,2.80
2022-08-04T00:41:55.490Z,2.63
2022-08-04T00:44:44.468Z,2.58
2022-08-04T00:47:19.128Z,2.72
2022-08-04T00:49:55.133Z,2.63
2022-08-04T00:52:40.244Z,2.53
2022-08-04T00:55:12.540Z,2.50
2022-08-04T00:57:51.833Z,2.88
2022-08-04T01:00:21.325Z,2.60
2022-08-04T01:03:06.351Z,2.70
2022-08-04T01:06:00.675Z,2.40
2022-08-04T01:11:56.828Z,2.42
2022-08-04T01:14:27.167Z,2.70
2022-08-04T01:16:57.772Z,2.50
2022-08-04T01:19:44.371Z,2.85
2022-08-04T01:22:18.222Z,2.22
2022-08-04T01:25:04.831Z,2.75
2022-08-04T01:27:40.506Z,2.70
2022-08-04T01:30:08.281Z,2.53
2022-08-04T01:32:40.824Z,2.58
2022-08-04T01:35:21.684Z,2.47
2022-08-04T01:38:18.169Z,2.45
2022-08-04T01:40:53.349Z,2.70
2022-08-04T01:43:20.725Z,3.05
2022-08-04T01:45:51.377Z,2.90
2022-08-04T01:48:18.994Z,2.40
2022-08-04T01:50:46.060Z,2.65
2022-08-04T01:53:19.965Z,2.50
2022-08-04T01:55:55.449Z,2.50
2022-08-04T01:58:23.359Z,2.90
2022-08-04T02:01:08.204Z,2.88
2022-08-04T02:04:18.145Z,2.38
2022-08-04T02:06:40.519Z,2.40
2022-08-04T02:09:19.000Z,2.70
2022-08-04T02:11:49.375Z,2.70
2022-08-04T02:14:41.591Z,2.75
2022-08-04T02:17:12.052Z,3.08
2022-08-04T02:19:55.684Z,2.80
2022-08-04T02:22:22.511Z,2.78
2022-08-04T02:24:57.495Z,2.90
2022-08-04T02:27:28.675Z,2.67
2022-08-04T02:30:15.145Z,3.08
2022-08-04T02:32:46.885Z,2.40
2022-08-04T02:35:20.324Z,2.75
2022-08-04T02:41:27.714Z,2.53
2022-08-04T02:43:58.370Z,3.10
2022-08-04T02:46:25.249Z,2.80
2022-08-04T02:48:53.089Z,2.78
2022-08-04T02:51:21.797Z,2.80
2022-08-04T02:53:49.969Z,2.90
2022-08-04T02:56:18.905Z,2.75
2022-08-04T02:58:46.651Z,3.03
2022-08-04T03:01:13.064Z,2.78
2022-08-04T03:03:45.318Z,2.63
2022-08-04T03:06:11.679Z,2.70
2022-08-04T03:08:50.345Z,2.90
2022-08-04T03:11:38.648Z,2.92
2022-08-04T03:14:10.342Z,2.67
2022-08-04T03:16:58.539Z,3.13
2022-08-04T03:19:32.219Z,3.33
2022-08-04T03:22:13.602Z,2.90
2022-08-04T03:24:58.583Z,2.88
2022-08-04T03:27:30.845Z,3.15
2022-08-04T03:30:07.877Z,3.10
2022-08-04T03:32:49.760Z,3.05
2022-08-04T03:35:34.657Z,2.92
2022-08-04T03:38:19.153Z,3.03
2022-08-04T03:41:03.663Z,3.15
2022-08-04T03:43:57.581Z,3.47
2022-08-04T03:46:33.184Z,2.95
2022-08-04T03:49:08.194Z,2.78
2022-08-04T03:51:56.389Z,2.97
2022-08-04T03:54:22.715Z,3.13
2022-08-04T03:56:49.048Z,3.00
2022-08-04T03:59:15.384Z,3.13
2022-08-04T04:02:02.164Z,3.20
2022-08-04T04:04:44.725Z,2.90
2022-08-04T04:07:24.445Z,3.00
2022-08-04T04:10:21.474Z,3.70
2022-08-04T04:13:02.712Z,3.13
2022-08-04T04:15:51.764Z,2.90
2022-08-04T04:18:20.954Z,3.00
2022-08-04T04:21:07.918Z,3.10
2022-08-04T04:23:37.254Z,2.90
2022-08-04T04:26:21.748Z,3.20
2022-08-04T04:29:06.388Z,2.85
2022-08-04T04:31:57.676Z,2.78
2022-08-04T04:34:36.043Z,3.13
2022-08-04T04:37:17.414Z,3.08
2022-08-04T04:40:03.419Z,3.17
2022-08-04T04:42:35.913Z,3.38
2022-08-04T04:45:11.166Z,3.00
2022-08-04T04:48:06.986Z,3.42
2022-08-04T04:50:34.948Z,2.92
2022-08-04T04:53:21.495Z,3.20
2022-08-04T04:55:52.276Z,2.80
2022-08-04T04:58:19.164Z,3.30
2022-08-04T05:01:03.978Z,3.15
2022-08-04T05:03:39.653Z,2.70
2022-08-04T05:06:12.781Z,3.03
2022-08-04T05:08:54.133Z,3.08
2022-08-04T05:11:29.946Z,2.67
2022-08-04T05:14:35.505Z,3.17
2022-08-04T05:17:07.954Z,3.03
2022-08-04T05:19:54.562Z,3.20
2022-08-04T05:22:24.069Z,2.92
2022-08-04T05:24:53.875Z,2.92
2022-08-04T05:27:22.527Z,2.88
2022-08-04T05:30:00.766Z,3.13
2022-08-04T05:32:29.136Z,3.03
2022-08-04T05:35:07.625Z,2.92
2022-08-04T05:37:35.069Z,2.80
2022-08-04T05:40:04.649Z,2.97
2022-08-04T05:42:32.459Z,3.00
2022-08-04T05:44:59.981Z,2.75
2022-08-04T05:47:27.882Z,3.35
2022-08-04T05:50:01.709Z,2.92
2022-08-04T05:52:30.297Z,3.40
2022-08-04T05:54:57.090Z,3.00
2022-08-04T05:57:23.901Z,2.97
2022-08-04T05:59:50.933Z,2.88
2022-08-04T06:02:18.329Z,2.63
2022-08-04T06:04:48.734Z,2.92
2022-08-04T06:07:15.174Z,2.95
2022-08-04T06:09:41.963Z,2.80
2022-08-04T06:12:14.542Z,2.95
2022-08-04T06:14:42.972Z,3.03
2022-08-04T06:18:33.782Z,2.90
2022-08-04T06:20:19.956Z,3.20
2022-08-04T06:22:46.001Z,3.05
2022-08-04T06:25:15.533Z,3.03
2022-08-04T06:27:42.909Z,3.00
2022-08-04T06:30:14.043Z,2.90
2022-08-04T06:32:48.492Z,2.38
2022-08-04T06:35:17.068Z,2.75
2022-08-04T06:37:44.546Z,3.03
2022-08-04T06:40:31.373Z,2.78
2022-08-04T06:43:07.104Z,2.60
2022-08-04T06:45:34.886Z,3.00
2022-08-04T06:48:01.859Z,3.03
2022-08-04T06:51:27.185Z,2.90
2022-08-04T06:53:15.660Z,3.20
2022-08-04T06:55:49.300Z,2.50
2022-08-04T06:58:16.340Z,2.60
2022-08-04T07:00:44.342Z,3.03
2022-08-04T07:03:10.873Z,2.75
2022-08-04T07:05:37.776Z,2.88
2022-08-04T07:08:04.499Z,2.75
2022-08-04T07:10:31.392Z,3.08
2022-08-04T07:12:57.985Z,2.70
2022-08-04T07:15:24.967Z,2.80
2022-08-04T07:17:52.223Z,2.38
2022-08-04T07:20:34.231Z,4.93
2022-08-04T07:23:06.233Z,3.38
2022-08-04T07:26:00.876Z,2.42
2022-08-04T07:28:22.919Z,2.70
2022-08-04T07:30:49.758Z,2.30
2022-08-04T07:33:16.603Z,2.40
2022-08-04T07:36:05.817Z,2.30
2022-08-04T07:38:29.764Z,2.70
2022-08-04T07:40:56.172Z,2.40
2022-08-04T07:43:22.660Z,2.33
2022-08-04T07:45:49.053Z,2.40
2022-08-04T07:48:15.607Z,2.13
2022-08-04T07:50:45.109Z,2.20
2022-08-04T07:53:54.654Z,2.35
2022-08-04T07:55:59.869Z,2.45
2022-08-04T07:58:30.135Z,2.35
2022-08-04T08:00:57.483Z,2.30
2022-08-04T08:03:24.572Z,2.80
2022-08-04T08:06:16.408Z,2.28
2022-08-04T08:08:39.317Z,2.35
2022-08-04T08:11:06.510Z,2.40
2022-08-04T08:13:33.767Z,2.45
2022-08-04T08:16:01.027Z,1.92
2022-08-04T08:18:27.421Z,2.47
2022-08-04T08:20:53.804Z,2.30
2022-08-04T08:23:20.197Z,2.47
2022-08-04T08:25:48.289Z,2.40
2022-08-04T08:28:16.155Z,2.28
2022-08-04T08:30:42.785Z,2.63
2022-08-04T08:33:11.714Z,2.40
2022-08-04T08:35:54.825Z,2.20
2022-08-04T08:38:28.869Z,2.60
2022-08-04T08:41:11.336Z,2.72
2022-08-04T08:44:06.272Z,2.33
2022-08-04T08:46:59.367Z,2.35
2022-08-04T08:50:02.293Z,2.63
2022-08-04T08:52:56.593Z,2.22
2022-08-04T08:55:18.279Z,1.90
2022-08-04T08:58:00.168Z,2.40
2022-08-04T09:00:35.973Z,1.90
2022-08-04T09:03:03.946Z,2.15
2022-08-04T09:05:50.276Z,2.38
2022-08-04T09:08:19.466Z,2.05
2022-08-04T09:10:51.243Z,2.33
2022-08-04T09:13:20.325Z,2.10
2022-08-04T09:15:54.578Z,2.13
2022-08-04T09:18:31.032Z,2.42
2022-08-04T09:21:12.623Z,2.30
2022-08-04T09:24:00.573Z,2.17
2022-08-04T09:26:29.490Z,1.83
2022-08-04T09:29:02.016Z,2.00
2022-08-04T09:31:48.714Z,1.88
2022-08-04T09:34:37.511Z,2.30
2022-08-04T09:37:15.103Z,2.22
2022-08-04T09:39:59.944Z,1.70
2022-08-04T09:42:37.826Z,2.92
2022-08-04T09:45:15.626Z,2.30
2022-08-04T09:48:08.107Z,1.98
2022-08-04T09:50:40.273Z,1.88
2022-08-04T09:53:12.752Z,1.55
2022-08-04T09:55:54.249Z,2.00
2022-08-04T09:58:40.219Z,1.30
2022-08-04T10:01:09.036Z,1.73
2022-08-04T10:03:38.760Z,1.90
2022-08-04T10:06:14.318Z,1.30
2022-08-04T10:08:52.049Z,1.65
2022-08-04T10:11:23.983Z,1.30
2022-08-04T10:14:05.735Z,1.33
2022-08-04T10:16:49.596Z,1.52
2022-08-04T10:19:29.935Z,2.10
2022-08-04T10:22:27.086Z,1.60
2022-08-04T10:24:56.933Z,1.40
2022-08-04T10:27:43.556Z,1.58
2022-08-04T10:30:14.002Z,2.15
2022-08-04T10:32:43.794Z,1.73
2022-08-04T10:35:24.340Z,1.83
2022-08-04T10:38:02.150Z,1.75
2022-08-04T10:40:38.017Z,1.48
2022-08-04T10:43:23.439Z,2.05
2022-08-04T10:46:13.275Z,1.70
2022-08-04T10:48:45.790Z,1.90
2022-08-04T10:51:20.089Z,1.88
2022-08-04T10:53:47.824Z,1.80
2022-08-04T10:56:17.766Z,1.83
2022-08-04T10:58:50.592Z,1.63
2022-08-04T11:02:00.548Z,1.92
2022-08-04T11:04:27.103Z,2.17
2022-08-04T11:06:54.213Z,1.50
2022-08-04T11:09:22.470Z,1.52
2022-08-04T11:12:01.300Z,1.80
2022-08-04T11:14:34.383Z,1.70
2022-08-04T11:17:08.614Z,1.63
2022-08-04T11:19:53.639Z,1.40
2022-08-04T11:22:22.064Z,1.35
2022-08-04T11:24:55.012Z,1.40
2022-08-04T11:27:37.121Z,1.35
2022-08-04T11:30:08.280Z,1.40
2022-08-04T11:32:42.876Z,1.77
2022-08-04T11:35:24.721Z,1.40
2022-08-04T11:38:11.328Z,1.60
2022-08-04T11:40:41.869Z,1.23
2022-08-04T11:44:00.825Z,1.10
2022-08-04T11:46:24.346Z,1.55
2022-08-04T11:49:00.887Z,1.45
2022-08-04T11:51:28.049Z,1.45
2022-08-04T11:53:55.756Z,1.30
2022-08-04T11:56:36.731Z,1.73
2022-08-04T11:59:05.914Z,1.10
2022-08-04T12:01:55.369Z,1.73
2022-08-04T12:04:36.840Z,1.35
2022-08-04T12:07:30.013Z,1.50
2022-08-04T12:10:03.171Z,1.67
2022-08-04T12:12:35.181Z,1.33
2022-08-04T12:15:15.504Z,1.60
2022-08-04T12:17:52.340Z,1.40
2022-08-04T12:20:40.343Z,1.73
2022-08-04T12:23:14.827Z,1.75
2022-08-04T12:25:45.263Z,1.60
2022-08-04T12:28:46.413Z,1.67
2022-08-04T12:31:40.321Z,1.88
2022-08-04T12:34:14.723Z,1.63
2022-08-04T12:36:55.463Z,1.60
2022-08-04T12:39:22.275Z,1.83
2022-08-04T12:42:01.689Z,1.77
2022-08-04T12:44:37.591Z,1.65
2022-08-04T12:47:26.718Z,1.70
2022-08-04T12:50:01.047Z,1.50
2022-08-04T12:52:51.710Z,1.27
2022-08-04T12:55:15.516Z,1.25
2022-08-04T12:57:42.528Z,1.40
2022-08-04T13:00:09.721Z,1.27
2022-08-04T13:02:42.414Z,1.83
2022-08-04T13:05:11.300Z,1.35
2022-08-04T13:07:47.331Z,1.70
2022-08-04T13:10:14.691Z,1.60
2022-08-04T13:12:51.367Z,1.13
2022-08-04T13:15:20.479Z,1.27
2022-08-04T13:17:57.339Z,1.60
2022-08-04T13:20:26.680Z,1.40
2022-08-04T13:22:58.647Z,1.60
2022-08-04T13:26:43.663Z,1.42
2022-08-04T13:28:21.357Z,1.38
2022-08-04T13:30:48.961Z,1.48
2022-08-04T13:33:16.150Z,1.58
2022-08-04T13:35:55.324Z,1.30
2022-08-04T13:38:24.313Z,1.42
2022-08-04T13:40:51.828Z,1.45
2022-08-04T13:44:16.780Z,1.13
2022-08-04T13:46:15.704Z,1.50
2022-08-04T13:49:23.557Z,1.17
2022-08-04T13:51:57.397Z,1.40
2022-08-04T13:54:26.385Z,1.40
2022-08-04T13:56:57.582Z,1.33
2022-08-04T13:59:26.508Z,1.60
2022-08-04T14:02:05.007Z,1.52
2022-08-04T14:04:34.555Z,1.70
2022-08-04T14:07:18.062Z,1.38
2022-08-04T14:10:02.675Z,1.50
2022-08-04T14:12:38.743Z,1.35
2022-08-04T14:16:01.206Z,1.30
2022-08-04T14:18:26.138Z,1.83
2022-08-04T14:21:01.402Z,1.30
2022-08-04T14:23:31.764Z,1.70
2022-08-04T14:25:59.927Z,1.35
2022-08-04T14:28:47.004Z,1.42
2022-08-04T14:31:15.201Z,2.15
2022-08-04T14:34:03.776Z,1.38
2022-08-04T14:36:38.325Z,1.40
2022-08-04T14:39:41.032Z,1.45
2022-08-04T14:42:08.019Z,1.48
2022-08-04T14:45:06.966Z,1.75
2022-08-04T14:47:40.627Z,1.58
2022-08-04T14:50:07.792Z,1.67
2022-08-04T14:52:36.352Z,1.70
2022-08-04T14:55:15.962Z,1.20
2022-08-04T14:58:35.054Z,1.27
2022-08-04T15:00:32.964Z,1.55
2022-08-04T15:03:08.546Z,1.80
2022-08-04T15:05:55.322Z,1.45
2022-08-04T15:08:22.787Z,1.60
2022-08-04T15:10:58.669Z,1.55
2022-08-04T15:13:28.747Z,1.20
2022-08-04T15:16:07.278Z,1.13
2022-08-04T15:18:35.177Z,1.70
2022-08-04T15:21:02.517Z,1.20
2022-08-04T15:23:39.630Z,1.40
2022-08-04T15:26:09.446Z,1.52
2022-08-04T15:28:36.800Z,1.65
2022-08-04T15:31:04.009Z,1.60
2022-08-04T15:33:34.152Z,1.65
2022-08-04T15:36:12.698Z,1.70
2022-08-04T15:38:41.313Z,1.42
2022-08-04T15:41:09.504Z,1.65
2022-08-04T15:43:45.152Z,1.17
2022-08-04T15:46:43.101Z,1.42
2022-08-04T15:49:17.812Z,1.40
2022-08-04T15:51:44.134Z,1.50
2022-08-04T15:54:18.077Z,1.63
2022-08-04T15:57:02.360Z,1.23
2022-08-04T15:59:48.811Z,1.42
2022-08-04T16:02:33.324Z,1.40
2022-08-04T16:05:19.780Z,1.20
2022-08-04T16:08:04.695Z,1.35
2022-08-04T16:10:31.068Z,1.50
2022-08-04T16:12:59.312Z,1.40
2022-08-04T16:15:42.222Z,1.70
2022-08-04T16:18:14.514Z,1.10
2022-08-04T16:20:57.644Z,1.35
2022-08-04T16:23:52.369Z,1.35
2022-08-04T16:26:45.206Z,1.50
2022-08-04T16:29:28.891Z,1.63
2022-08-04T16:32:04.084Z,1.63
2022-08-04T16:34:49.931Z,1.60
2022-08-04T16:37:18.861Z,1.52
2022-08-04T16:39:49.964Z,1.60
2022-08-04T16:42:29.696Z,1.67
2022-08-04T16:44:59.012Z,1.67
2022-08-04T16:47:44.217Z,1.42
2022-08-04T16:50:11.001Z,1.67
2022-08-04T16:53:03.522Z,1.25
2022-08-04T16:55:29.905Z,1.40
2022-08-04T16:57:57.412Z,1.50
2022-08-04T17:00:36.763Z,1.67
2022-08-04T17:03:04.505Z,1.50
2022-08-04T17:05:39.333Z,1.55
2022-08-04T17:08:29.118Z,1.35
2022-08-04T17:10:53.887Z,1.63
2022-08-04T17:14:03.415Z,1.75
2022-08-04T17:16:13.139Z,1.45
2022-08-04T17:18:41.392Z,1.10
2022-08-04T17:21:12.546Z,1.60
2022-08-04T17:24:13.130Z,1.90
2022-08-04T17:26:39.749Z,1.83
2022-08-04T17:29:08.288Z,1.92
2022-08-04T17:31:35.793Z,1.58
2022-08-04T17:34:13.839Z,1.65
2022-08-04T17:36:43.790Z,1.90
2022-08-04T17:39:16.504Z,2.25
2022-08-04T17:41:49.050Z,1.90
2022-08-04T17:44:15.971Z,1.95
2022-08-04T17:46:45.254Z,1.80
2022-08-04T17:49:12.139Z,2.20
2022-08-04T17:52:04.432Z,2.88
2022-08-04T17:54:37.459Z,2.83
2022-08-04T18:00:05.855Z,2.20
2022-08-04T18:02:35.652Z,2.08
2022-08-04T18:08:34.578Z,1.92
2022-08-04T18:10:55.843Z,2.17
2022-08-04T18:13:26.353Z,2.47
2022-08-04T18:16:07.235Z,2.15
2022-08-04T18:18:41.290Z,2.10
2022-08-04T18:21:15.525Z,2.10
2022-08-04T18:23:50.921Z,9.27
2022-08-04T18:26:18.024Z,14.15
2022-08-04T18:28:44.575Z,4.22
2022-08-04T18:31:11.175Z,4.35
2022-08-04T18:33:43.004Z,2.88
2022-08-04T18:36:33.471Z,2.83
2022-08-04T18:39:13.672Z,2.60
2022-08-04T18:42:01.275Z,2.30
2022-08-04T18:44:31.715Z,2.25
2022-08-04T18:47:19.049Z,2.38
2022-08-04T18:51:00.755Z,2.50
2022-08-04T18:52:31.763Z,2.35
2022-08-04T18:55:01.938Z,2.08
2022-08-04T18:57:58.768Z,2.30
2022-08-04T19:00:15.523Z,2.50
2022-08-04T19:02:41.895Z,2.78
2022-08-04T19:05:17.023Z,2.13
2022-08-04T19:08:11.194Z,2.33
2022-08-04T19:10:30.464Z,2.83
2022-08-04T19:12:58.294Z,2.70
2022-08-04T19:15:34.215Z,2.38
2022-08-04T19:18:01.330Z,2.33
2022-08-04T19:20:28.294Z,2.17
2022-08-04T19:24:26.333Z,2.90
2022-08-04T19:26:01.438Z,2.70
2022-08-04T19:28:34.111Z,2.70
2022-08-04T19:31:02.001Z,2.65
2022-08-04T19:33:55.354Z,2.60
2022-08-04T19:36:17.116Z,2.70
2022-08-04T19:38:44.474Z,2.63
2022-08-04T19:41:14.272Z,2.97
2022-08-04T19:46:28.833Z,2.90
2022-08-04T19:48:59.762Z,2.80
2022-08-04T19:51:27.933Z,2.80
2022-08-04T19:53:59.404Z,2.85
2022-08-04T19:56:30.712Z,3.20
2022-08-04T19:59:07.462Z,3.20
2022-08-04T20:01:42.220Z,2.97
2022-08-04T20:04:11.449Z,2.70
2022-08-04T20:06:39.053Z,3.05
2022-08-04T20:09:25.023Z,3.22
2022-08-04T20:11:51.875Z,3.40
2022-08-04T20:14:19.615Z,3.50
2022-08-04T20:16:58.677Z,3.08
2022-08-04T20:19:25.615Z,3.00
2022-08-04T20:21:55.516Z,3.08
2022-08-04T20:24:41.458Z,3.30
2022-08-04T20:27:15.248Z,3.42
2022-08-04T20:29:43.375Z,3.75
2022-08-04T20:32:12.594Z,4.43
2022-08-04T20:34:41.753Z,4.00
2022-08-04T20:37:10.086Z,4.18
2022-08-04T20:39:37.292Z,3.55
2022-08-04T20:42:03.779Z,3.75
2022-08-04T20:44:30.107Z,3.10
2022-08-04T20:46:56.452Z,3.08
2022-08-04T20:49:23.079Z,3.70
2022-08-04T20:52:12.154Z,3.45
2022-08-04T20:54:42.081Z,3.53
2022-08-04T20:57:14.686Z,3.45
2022-08-04T20:59:43.538Z,3.50
2022-08-04T21:02:16.831Z,3.13
2022-08-04T21:04:48.522Z,3.50
2022-08-04T21:07:16.811Z,3.20
2022-08-04T21:09:50.120Z,3.60
2022-08-04T21:12:27.463Z,3.70
2022-08-04T21:15:01.132Z,3.70
2022-08-04T21:17:56.994Z,4.05
2022-08-04T21:23:07.324Z,4.50
2022-08-04T21:25:42.753Z,4.05
2022-08-04T21:28:10.187Z,3.38
2022-08-04T21:30:54.592Z,3.85
2022-08-04T21:33:22.203Z,3.40
2022-08-04T21:35:54.073Z,3.88
2022-08-04T21:38:21.879Z,3.30
2022-08-04T21:40:53.665Z,3.60
2022-08-04T21:43:20.799Z,3.30
2022-08-04T21:45:50.207Z,3.65
2022-08-04T21:48:16.792Z,3.53
2022-08-04T21:50:43.358Z,3.60
2022-08-04T21:53:10.969Z,3.40
2022-08-04T21:56:05.868Z,3.40
2022-08-04T21:58:29.158Z,3.60
2022-08-04T22:00:59.186Z,3.53
2022-08-04T22:03:53.612Z,3.63
2022-08-04T22:06:12.222Z,4.45
2022-08-04T22:08:44.361Z,3.65
2022-08-04T22:11:26.613Z,4.00
2022-08-04T22:14:11.899Z,3.95
2022-08-04T22:16:39.884Z,3.60
2022-08-04T22:19:06.700Z,3.70
2022-08-04T22:21:39.246Z,4.20
2022-08-04T22:24:13.794Z,3.50
2022-08-04T22:26:40.919Z,4.00
2022-08-04T22:29:07.319Z,3.90
2022-08-04T22:31:55.761Z,3.92
2022-08-04T22:34:23.923Z,4.18
2022-08-04T22:36:50.503Z,4.10
2022-08-04T22:39:17.277Z,4.00
2022-08-04T22:41:48.550Z,3.85
2022-08-04T22:44:32.428Z,3.92
2022-08-04T22:47:00.337Z,3.80
2022-08-04T22:49:31.932Z,4.10
2022-08-04T22:51:59.331Z,3.85
2022-08-04T22:54:26.089Z,4.28
2022-08-04T22:56:56.636Z,4.50
2022-08-04T22:59:23.097Z,4.55
2022-08-04T23:01:58.751Z,3.92
2022-08-04T23:04:28.156Z,4.05
2022-08-04T23:06:54.831Z,4.43
2022-08-04T23:09:21.469Z,3.85
2022-08-04T23:11:53.910Z,4.03
2022-08-04T23:14:25.154Z,3.78
2022-08-04T23:16:52.776Z,4.13
2022-08-04T23:19:19.748Z,4.00
2022-08-04T23:22:01.939Z,4.05
2022-08-04T23:24:29.652Z,4.90
2022-08-04T23:26:56.901Z,3.95
2022-08-04T23:29:23.398Z,4.00
2022-08-04T23:32:00.126Z,4.40
2022-08-04T23:34:26.955Z,4.00
2022-08-04T23:36:55.728Z,4.03
2022-08-04T23:39:25.583Z,3.85
2022-08-04T23:42:15.085Z,4.00
2022-08-04T23:44:48.037Z,4.35
2022-08-04T23:48:15.080Z,4.38
2022-08-04T23:50:00.749Z,4.03
2022-08-04T23:52:29.515Z,4.10
2022-08-04T23:54:59.543Z,4.10
2022-08-04T23:57:31.193Z,4.00
